createdAt,value
2019-02-07T00:00:58.352Z,90.60
2019-02-07T00:02:32.715Z,90.50
2019-02-07T00:04:07.086Z,90.40
2019-02-07T00:05:41.449Z,90.50
2019-02-07T00:07:15.851Z,90.40
2019-02-07T00:08:50.208Z,90.40
2019-02-07T00:10:24.574Z,90.40
2019-02-07T00:11:59.337Z,90.40
2019-02-07T00:13:33.729Z,90.30
2019-02-07T00:15:10.242Z,90.40
2019-02-07T00:16:44.679Z,90.30
2019-02-07T00:18:19.045Z,90.40
2019-02-07T00:19:53.425Z,90.50
2019-02-07T00:21:27.880Z,90.50
2019-02-07T00:23:02.280Z,90.50
2019-02-07T00:24:42.998Z,90.50
2019-02-07T00:26:12.741Z,90.50
2019-02-07T00:27:47.109Z,90.50
2019-02-07T00:29:21.503Z,90.50
2019-02-07T00:30:55.817Z,90.60
2019-02-07T00:32:30.184Z,90.60
2019-02-07T00:34:05.096Z,90.60
2019-02-07T00:35:39.476Z,90.60
2019-02-07T00:37:15.456Z,90.60
2019-02-07T00:38:49.936Z,90.50
2019-02-07T00:40:25.829Z,90.60
2019-02-07T00:42:00.217Z,90.60
2019-02-07T00:43:34.584Z,90.70
2019-02-07T00:45:11.521Z,90.70
2019-02-07T00:46:45.884Z,90.70
2019-02-07T00:48:20.258Z,90.70
2019-02-07T00:49:54.928Z,90.60
2019-02-07T00:51:29.300Z,90.60
2019-02-07T00:53:03.685Z,90.70
2019-02-07T00:54:38.056Z,90.60
2019-02-07T00:56:12.532Z,90.60
2019-02-07T00:57:47.077Z,90.60
2019-02-07T00:59:21.451Z,90.60
2019-02-07T01:00:55.819Z,90.60
2019-02-07T01:02:30.503Z,90.70
2019-02-07T01:04:04.897Z,90.70
2019-02-07T01:05:39.365Z,90.70
2019-02-07T01:07:13.736Z,90.60
2019-02-07T01:08:49.626Z,90.60
2019-02-07T01:10:26.083Z,90.70
2019-02-07T01:12:00.480Z,90.60
2019-02-07T01:13:34.863Z,90.50
2019-02-07T01:15:11.369Z,90.50
2019-02-07T01:16:45.731Z,90.60
2019-02-07T01:18:20.100Z,90.50
2019-02-07T01:19:54.464Z,90.40
2019-02-07T01:21:30.453Z,90.40
2019-02-07T01:23:04.916Z,90.40
2019-02-07T01:24:39.284Z,90.40
2019-02-07T01:26:15.227Z,90.40
2019-02-07T01:27:49.884Z,90.50
2019-02-07T01:29:24.250Z,90.50
2019-02-07T01:30:58.641Z,90.50
2019-02-07T01:32:33.006Z,90.80
2019-02-07T01:34:07.364Z,90.50
2019-02-07T01:35:41.730Z,90.50
2019-02-07T01:37:16.174Z,90.20
2019-02-07T01:38:50.548Z,90.20
2019-02-07T01:40:25.225Z,90.20
2019-02-07T01:41:59.601Z,90.20
2019-02-07T01:43:34.133Z,90.30
2019-02-07T01:45:14.453Z,90.30
2019-02-07T01:46:48.865Z,90.20
2019-02-07T01:48:23.236Z,90.00
2019-02-07T01:49:57.674Z,90.10
2019-02-07T01:51:32.108Z,90.00
2019-02-07T01:53:06.683Z,90.10
2019-02-07T01:54:41.076Z,90.00
2019-02-07T01:56:15.462Z,90.30
2019-02-07T01:57:49.828Z,90.00
2019-02-07T01:59:24.192Z,90.00
2019-02-07T02:00:58.589Z,90.00
2019-02-07T02:04:13.800Z,90.00
2019-02-07T02:05:48.117Z,89.60
2019-02-07T02:07:22.512Z,89.70
2019-02-07T02:08:56.882Z,89.60
2019-02-07T02:10:31.242Z,89.80
2019-02-07T02:12:05.612Z,89.70
2019-02-07T02:13:40.127Z,89.40
2019-02-07T02:15:24.002Z,89.40
2019-02-07T02:16:52.329Z,89.60
2019-02-07T02:18:26.683Z,89.40
2019-02-07T02:20:01.052Z,89.30
2019-02-07T02:21:35.428Z,89.30
2019-02-07T02:23:09.802Z,88.90
2019-02-07T02:24:45.273Z,88.80
2019-02-07T02:26:19.817Z,88.60
2019-02-07T02:27:54.292Z,87.50
2019-02-07T02:29:28.651Z,87.40
2019-02-07T02:31:04.627Z,87.50
2019-02-07T02:32:38.993Z,87.60
2019-02-07T02:34:13.462Z,87.40
2019-02-07T02:35:47.839Z,87.30
2019-02-07T02:37:22.204Z,87.50
2019-02-07T02:38:56.667Z,87.20
2019-02-07T02:40:31.062Z,87.40
2019-02-07T02:42:05.437Z,87.50
2019-02-07T02:43:40.179Z,87.30
2019-02-07T02:45:19.627Z,87.10
2019-02-07T02:46:53.986Z,87.20
2019-02-07T02:48:28.431Z,87.40
2019-02-07T02:50:04.029Z,87.50
2019-02-07T02:51:38.768Z,87.70
2019-02-07T02:53:13.225Z,87.70
2019-02-07T02:54:48.761Z,87.70
2019-02-07T02:56:23.205Z,87.80
2019-02-07T02:57:57.570Z,87.40
2019-02-07T02:59:31.973Z,87.70
2019-02-07T03:01:23.219Z,87.60
2019-02-07T03:03:01.971Z,87.70
2019-02-07T03:04:40.658Z,87.60
2019-02-07T03:06:22.601Z,87.60
2019-02-07T03:08:15.163Z,87.80
2019-02-07T03:10:07.399Z,87.80
2019-02-07T03:11:43.408Z,88.00
2019-02-07T03:13:36.070Z,88.00
2019-02-07T03:15:12.335Z,87.80
2019-02-07T03:16:58.481Z,87.80
2019-02-07T03:18:34.501Z,88.00
2019-02-07T03:20:16.671Z,87.80
2019-02-07T03:22:08.643Z,87.90
2019-02-07T03:23:47.836Z,87.80
2019-02-07T03:25:41.953Z,88.00
2019-02-07T03:27:23.969Z,88.00
2019-02-07T03:29:08.813Z,88.00
2019-02-07T03:30:57.125Z,88.10
2019-02-07T03:32:33.135Z,87.80
2019-02-07T03:34:09.444Z,87.80
2019-02-07T03:35:51.291Z,87.50
2019-02-07T03:37:30.003Z,87.50
2019-02-07T03:39:11.500Z,87.60
2019-02-07T03:40:50.488Z,87.70
2019-02-07T03:42:28.944Z,87.60
2019-02-07T03:44:10.782Z,87.50
2019-02-07T03:46:03.361Z,87.50
2019-02-07T03:47:57.442Z,87.40
2019-02-07T03:49:33.449Z,87.20
2019-02-07T03:51:14.929Z,87.20
2019-02-07T03:52:50.957Z,86.90
2019-02-07T03:54:29.746Z,86.70
2019-02-07T03:56:05.821Z,86.60
2019-02-07T03:57:44.829Z,86.50
2019-02-07T03:59:29.569Z,86.50
2019-02-07T04:01:20.888Z,86.40
2019-02-07T04:02:57.004Z,86.60
2019-02-07T04:06:33.618Z,87.10
2019-02-07T04:08:15.589Z,87.30
2019-02-07T04:09:51.621Z,87.30
2019-02-07T04:11:42.661Z,87.30
2019-02-07T04:13:21.717Z,87.20
2019-02-07T04:15:00.701Z,87.30
2019-02-07T04:16:37.154Z,87.30
2019-02-07T04:18:31.305Z,87.40
2019-02-07T04:20:15.567Z,87.20
2019-02-07T04:21:54.599Z,87.10
2019-02-07T04:23:47.370Z,87.10
2019-02-07T04:25:26.102Z,87.20
2019-02-07T04:27:14.366Z,87.30
2019-02-07T04:28:53.297Z,87.60
2019-02-07T04:30:47.088Z,87.80
2019-02-07T04:32:41.562Z,87.90
2019-02-07T04:34:26.541Z,88.00
2019-02-07T04:36:02.580Z,88.20
2019-02-07T04:37:56.501Z,88.10
2019-02-07T04:39:35.621Z,88.20
2019-02-07T04:41:23.901Z,88.00
2019-02-07T04:43:12.417Z,87.90
2019-02-07T04:44:48.449Z,88.00
2019-02-07T04:46:41.101Z,88.10
2019-02-07T04:48:32.133Z,88.20
2019-02-07T04:50:16.467Z,88.10
2019-02-07T04:51:55.142Z,88.10
2019-02-07T04:53:37.117Z,88.20
2019-02-07T04:55:29.441Z,88.30
2019-02-07T04:57:20.220Z,88.50
2019-02-07T04:59:12.417Z,88.50
2019-02-07T05:00:51.143Z,88.70
2019-02-07T05:02:27.215Z,88.70
2019-02-07T05:04:19.814Z,88.90
2019-02-07T05:06:13.695Z,89.00
2019-02-07T05:08:00.262Z,89.00
2019-02-07T05:09:36.742Z,88.90
2019-02-07T05:11:27.885Z,88.80
2019-02-07T05:13:06.842Z,88.90
2019-02-07T05:14:48.917Z,88.70
2019-02-07T05:16:24.953Z,88.80
2019-02-07T05:18:00.962Z,88.80
2019-02-07T05:19:54.901Z,88.80
2019-02-07T05:21:30.996Z,88.80
2019-02-07T05:23:12.883Z,88.80
2019-02-07T05:24:51.796Z,89.00
2019-02-07T05:26:33.337Z,89.10
2019-02-07T05:28:12.125Z,89.10
2019-02-07T05:30:04.425Z,89.00
2019-02-07T05:31:46.478Z,89.00
2019-02-07T05:33:31.689Z,89.00
2019-02-07T05:35:11.093Z,88.90
2019-02-07T05:36:53.380Z,89.00
2019-02-07T05:38:45.536Z,88.90
2019-02-07T05:40:21.547Z,88.90
2019-02-07T05:42:00.540Z,89.00
2019-02-07T05:43:39.529Z,89.00
2019-02-07T05:45:21.536Z,89.00
2019-02-07T05:46:57.525Z,88.80
2019-02-07T05:48:45.952Z,88.90
2019-02-07T05:50:24.801Z,88.90
2019-02-07T05:52:06.523Z,88.70
2019-02-07T05:53:45.432Z,88.60
2019-02-07T05:55:30.395Z,88.50
2019-02-07T05:57:09.108Z,88.40
2019-02-07T05:59:03.245Z,88.40
2019-02-07T06:00:54.666Z,88.50
2019-02-07T06:02:30.787Z,88.50
2019-02-07T06:04:12.897Z,88.20
2019-02-07T06:05:48.901Z,88.20
2019-02-07T06:07:27.898Z,88.10
2019-02-07T06:09:20.270Z,87.80
2019-02-07T06:10:59.126Z,87.50
2019-02-07T06:12:36.644Z,87.10
2019-02-07T06:14:12.693Z,86.60
2019-02-07T06:15:56.962Z,86.00
2019-02-07T06:17:34.958Z,85.10
2019-02-07T06:19:20.042Z,84.10
2019-02-07T06:21:05.084Z,83.20
2019-02-07T06:22:53.028Z,82.50
2019-02-07T06:24:36.378Z,81.60
2019-02-07T06:26:14.795Z,80.50
2019-02-07T06:27:57.032Z,79.60
2019-02-07T06:29:33.074Z,78.40
2019-02-07T06:31:12.025Z,77.40
2019-02-07T06:33:04.309Z,77.30
2019-02-07T06:34:49.521Z,76.00
2019-02-07T06:36:42.042Z,74.70
2019-02-07T06:38:30.337Z,73.30
2019-02-07T06:40:26.549Z,73.30
2019-02-07T06:42:02.553Z,72.30
2019-02-07T06:43:43.387Z,71.70
2019-02-07T06:45:35.906Z,71.60
2019-02-07T06:47:29.773Z,71.40
2019-02-07T06:49:25.041Z,71.20
2019-02-07T06:51:09.965Z,70.30
2019-02-07T06:52:46.268Z,69.80
2019-02-07T06:54:31.388Z,71.00
2019-02-07T06:56:07.395Z,71.20
2019-02-07T06:57:46.358Z,70.70
2019-02-07T06:59:28.209Z,70.70
2019-02-07T07:01:04.218Z,70.10
2019-02-07T07:02:46.284Z,70.50
2019-02-07T07:11:49.600Z,91.60
2019-02-07T07:13:27.019Z,95.80
2019-02-07T07:15:10.091Z,94.60
2019-02-07T07:16:49.897Z,92.90
2019-02-07T07:18:43.339Z,90.30
2019-02-07T07:20:39.016Z,85.10
2019-02-07T07:22:25.457Z,76.50
2019-02-07T07:27:08.782Z,26.00
2019-02-07T07:29:02.290Z,32.00
2019-02-07T07:30:54.999Z,35.30
2019-02-07T07:32:32.422Z,44.30
2019-02-07T07:34:12.501Z,52.00
2019-02-07T07:35:51.113Z,51.70
2019-02-07T07:37:40.409Z,55.50
2019-02-07T07:40:27.785Z,63.70
2019-02-07T07:42:06.255Z,65.60
2019-02-07T07:43:59.707Z,68.90
2019-02-07T07:45:41.064Z,70.60
2019-02-07T07:47:19.269Z,74.20
2019-02-07T07:49:12.338Z,74.60
2019-02-07T07:50:50.426Z,76.70
2019-02-07T07:52:43.925Z,77.00
2019-02-07T07:54:29.837Z,77.50
2019-02-07T07:56:11.481Z,77.50
2019-02-07T07:58:04.720Z,78.80
2019-02-07T07:59:50.946Z,78.00
2019-02-07T08:01:44.153Z,78.70
2019-02-07T08:03:21.315Z,78.70
2019-02-07T08:05:07.323Z,80.60
2019-02-07T08:06:54.644Z,78.40
2019-02-07T08:08:50.243Z,79.20
2019-02-07T08:10:27.401Z,78.70
2019-02-07T08:12:06.615Z,79.10
2019-02-07T08:13:52.880Z,78.00
2019-02-07T08:15:38.905Z,79.20
2019-02-07T08:17:18.562Z,77.60
2019-02-07T08:18:58.337Z,78.00
2019-02-07T08:20:38.321Z,78.10
2019-02-07T08:22:16.791Z,77.00
2019-02-07T08:23:56.856Z,78.60
2019-02-07T08:25:43.326Z,78.60
2019-02-07T08:27:36.771Z,79.30
2019-02-07T08:29:13.914Z,79.30
2019-02-07T08:30:52.198Z,78.70
2019-02-07T08:32:45.647Z,78.50
2019-02-07T08:34:25.788Z,78.20
2019-02-07T08:36:18.038Z,76.20
2019-02-07T08:38:04.395Z,77.30
2019-02-07T08:39:57.764Z,77.60
2019-02-07T08:41:35.989Z,77.10
2019-02-07T08:43:31.435Z,75.70
2019-02-07T08:45:28.567Z,75.00
2019-02-07T08:47:05.698Z,74.70
2019-02-07T08:48:44.347Z,73.90
2019-02-07T08:50:25.608Z,75.70
2019-02-07T08:52:07.326Z,74.90
2019-02-07T08:53:47.477Z,73.20
2019-02-07T08:55:24.598Z,74.20
2019-02-07T08:57:07.820Z,71.40
2019-02-07T08:58:43.067Z,71.60
2019-02-07T09:00:19.831Z,72.70
2019-02-07T09:01:59.797Z,72.00
2019-02-07T09:03:42.679Z,72.30
2019-02-07T09:05:31.944Z,72.30
2019-02-07T09:07:15.114Z,72.60
2019-02-07T09:08:55.205Z,72.20
2019-02-07T09:10:38.332Z,71.50
2019-02-07T09:12:15.514Z,69.60
2019-02-07T09:13:53.663Z,69.80
2019-02-07T09:15:32.813Z,71.00
2019-02-07T09:17:09.942Z,70.10
2019-02-07T09:18:47.931Z,68.90
2019-02-07T09:20:25.058Z,68.50
2019-02-07T09:22:23.699Z,70.70
2019-02-07T09:23:57.763Z,70.10
2019-02-07T09:25:34.905Z,69.60
2019-02-07T09:27:16.401Z,70.10
2019-02-07T09:28:56.336Z,69.80
2019-02-07T09:30:40.582Z,67.60
2019-02-07T09:32:19.209Z,67.60
2019-02-07T09:33:59.086Z,68.60
2019-02-07T09:35:44.025Z,69.30
2019-02-07T09:37:22.268Z,70.50
2019-02-07T09:39:08.282Z,70.60
2019-02-07T09:40:48.493Z,69.30
2019-02-07T09:42:28.313Z,69.00
2019-02-07T09:44:20.491Z,70.20
2019-02-07T09:46:14.024Z,67.70
2019-02-07T09:48:03.267Z,68.00
2019-02-07T09:49:42.959Z,68.80
2019-02-07T09:51:20.086Z,68.50
2019-02-07T09:53:23.756Z,69.60
2019-02-07T09:54:54.101Z,68.60
2019-02-07T09:56:35.606Z,69.30
2019-02-07T09:58:18.736Z,67.50
2019-02-07T10:00:11.173Z,66.40
2019-02-07T10:01:48.308Z,66.70
2019-02-07T10:03:31.720Z,68.00
2019-02-07T10:05:11.861Z,65.70
2019-02-07T10:06:47.151Z,60.70
2019-02-07T10:08:40.262Z,61.70
2019-02-07T10:10:33.499Z,62.80
2019-02-07T10:12:26.798Z,61.70
2019-02-07T10:14:16.071Z,60.50
2019-02-07T10:16:02.258Z,63.40
2019-02-07T10:17:48.337Z,62.30
2019-02-07T10:19:25.472Z,63.90
2019-02-07T10:21:11.760Z,61.10
2019-02-07T10:23:02.021Z,62.90
2019-02-07T10:24:45.994Z,61.80
2019-02-07T10:26:23.176Z,60.30
2019-02-07T10:28:16.423Z,60.00
2019-02-07T10:30:09.582Z,61.40
2019-02-07T10:31:44.835Z,59.40
2019-02-07T10:33:25.072Z,59.50
2019-02-07T10:35:03.017Z,58.90
2019-02-07T10:36:42.580Z,58.10
2019-02-07T10:38:28.918Z,59.10
2019-02-07T10:40:12.185Z,59.10
2019-02-07T10:42:01.549Z,60.00
2019-02-07T10:43:41.104Z,60.50
2019-02-07T10:45:19.097Z,59.70
2019-02-07T10:49:15.523Z,60.50
2019-02-07T10:51:07.807Z,58.90
2019-02-07T10:52:47.659Z,60.20
2019-02-07T10:54:36.748Z,59.20
2019-02-07T10:56:17.663Z,60.80
2019-02-07T10:58:06.613Z,60.00
2019-02-07T11:00:01.389Z,59.90
2019-02-07T11:01:38.526Z,59.20
2019-02-07T11:03:15.651Z,58.70
2019-02-07T11:04:55.522Z,58.80
2019-02-07T11:06:32.845Z,60.10
2019-02-07T11:08:11.038Z,59.00
2019-02-07T11:09:54.790Z,58.00
2019-02-07T11:11:31.917Z,58.70
2019-02-07T11:13:24.858Z,56.60
2019-02-07T11:15:00.297Z,57.20
2019-02-07T11:16:37.939Z,56.90
2019-02-07T11:18:15.077Z,56.10
2019-02-07T11:20:08.332Z,56.00
2019-02-07T11:23:45.759Z,58.20
2019-02-07T11:25:38.752Z,56.80
2019-02-07T11:27:29.653Z,57.00
2019-02-07T11:29:13.051Z,54.00
2019-02-07T11:30:50.181Z,53.70
2019-02-07T11:32:27.320Z,54.40
2019-02-07T11:34:10.503Z,52.50
2019-02-07T11:35:45.833Z,53.50
2019-02-07T11:37:21.116Z,52.40
2019-02-07T11:39:04.707Z,52.50
2019-02-07T11:40:54.518Z,52.90
2019-02-07T11:42:33.157Z,54.00
2019-02-07T11:44:12.104Z,51.40
2019-02-07T11:45:59.155Z,51.60
2019-02-07T11:47:37.999Z,50.50
2019-02-07T11:49:23.865Z,51.00
2019-02-07T11:51:01.269Z,53.10
2019-02-07T11:52:39.893Z,51.90
2019-02-07T11:54:27.369Z,54.20
2019-02-07T11:56:19.561Z,52.10
2019-02-07T11:57:57.897Z,51.40
2019-02-07T11:59:48.197Z,50.30
2019-02-07T12:01:35.541Z,51.70
2019-02-07T12:03:28.762Z,50.00
2019-02-07T12:05:06.753Z,50.50
2019-02-07T12:06:59.910Z,52.00
2019-02-07T12:08:47.490Z,52.80
2019-02-07T12:10:27.594Z,50.90
2019-02-07T12:12:06.215Z,52.50
2019-02-07T12:13:52.144Z,50.50
2019-02-07T12:15:27.419Z,50.90
2019-02-07T12:17:11.795Z,52.00
2019-02-07T12:18:54.938Z,51.90
2019-02-07T12:20:45.458Z,50.80
2019-02-07T12:22:38.674Z,50.40
2019-02-07T12:24:29.094Z,51.70
2019-02-07T12:26:12.359Z,51.60
2019-02-07T12:27:49.510Z,52.80
2019-02-07T12:29:38.670Z,53.00
2019-02-07T12:31:25.014Z,49.80
2019-02-07T12:33:20.442Z,52.20
2019-02-07T12:35:00.571Z,49.50
2019-02-07T12:36:37.777Z,53.10
2019-02-07T12:38:20.561Z,51.10
2019-02-07T12:40:04.890Z,54.10
2019-02-07T12:41:45.005Z,51.10
2019-02-07T12:43:30.711Z,51.30
2019-02-07T12:45:10.837Z,51.90
2019-02-07T12:46:46.115Z,52.20
2019-02-07T12:48:24.367Z,51.30
2019-02-07T12:50:14.671Z,51.20
2019-02-07T12:52:08.366Z,51.00
2019-02-07T12:53:51.481Z,49.90
2019-02-07T12:55:31.624Z,50.70
2019-02-07T12:57:17.616Z,51.80
2019-02-07T12:59:03.510Z,51.40
2019-02-07T13:00:46.607Z,50.70
2019-02-07T13:02:32.771Z,51.00
2019-02-07T13:04:24.986Z,51.20
2019-02-07T13:06:02.113Z,50.40
2019-02-07T13:07:46.758Z,51.90
2019-02-07T13:09:38.867Z,52.60
2019-02-07T13:11:22.266Z,52.70
2019-02-07T13:13:05.306Z,52.90
2019-02-07T13:14:54.880Z,54.00
2019-02-07T13:16:37.843Z,54.40
2019-02-07T13:18:23.826Z,53.80
2019-02-07T13:20:17.086Z,53.90
2019-02-07T13:22:00.004Z,52.70
2019-02-07T13:23:44.348Z,53.40
2019-02-07T13:25:33.768Z,54.50
2019-02-07T13:27:20.695Z,54.50
2019-02-07T13:29:14.185Z,54.30
2019-02-07T13:30:51.313Z,55.10
2019-02-07T13:32:46.854Z,56.40
2019-02-07T13:34:40.123Z,57.10
2019-02-07T13:36:23.085Z,56.30
2019-02-07T13:38:18.570Z,56.60
2019-02-07T13:39:56.199Z,56.70
2019-02-07T13:41:31.449Z,56.10
2019-02-07T13:43:14.200Z,57.90
2019-02-07T13:44:53.858Z,56.60
2019-02-07T13:46:39.696Z,56.70
2019-02-07T13:48:19.513Z,56.90
2019-02-07T13:49:56.635Z,56.80
2019-02-07T13:51:43.843Z,56.30
2019-02-07T13:53:37.541Z,56.20
2019-02-07T13:55:15.227Z,55.90
2019-02-07T13:56:50.501Z,55.70
2019-02-07T13:58:27.704Z,55.80
2019-02-07T14:00:07.591Z,55.50
2019-02-07T14:01:50.753Z,56.10
2019-02-07T14:03:43.878Z,55.50
2019-02-07T14:05:38.657Z,56.10
2019-02-07T14:07:28.092Z,56.50
2019-02-07T14:09:23.178Z,56.90
2019-02-07T14:11:16.911Z,55.60
2019-02-07T14:12:54.054Z,55.50
2019-02-07T14:14:32.021Z,55.70
2019-02-07T14:16:13.523Z,56.30
2019-02-07T14:17:50.883Z,55.70
2019-02-07T14:19:33.940Z,56.00
2019-02-07T14:21:27.399Z,55.90
2019-02-07T14:23:04.527Z,55.80
2019-02-07T14:24:48.065Z,55.70
2019-02-07T14:26:23.317Z,55.50
2019-02-07T14:27:58.593Z,55.90
2019-02-07T14:29:52.099Z,56.20
2019-02-07T14:31:34.985Z,57.40
2019-02-07T14:33:12.119Z,57.20
2019-02-07T14:34:50.340Z,57.70
2019-02-07T14:36:31.166Z,57.20
2019-02-07T14:38:08.364Z,56.40
2019-02-07T14:40:04.639Z,56.70
2019-02-07T14:41:59.864Z,57.90
2019-02-07T14:43:52.309Z,56.30
2019-02-07T14:45:32.193Z,57.10
2019-02-07T14:47:07.670Z,56.40
2019-02-07T14:48:45.228Z,57.00
2019-02-07T14:50:20.816Z,56.50
2019-02-07T14:51:56.330Z,56.30
2019-02-07T14:53:31.810Z,57.00
2019-02-07T14:55:11.442Z,56.50
2019-02-07T14:56:47.305Z,56.80
2019-02-07T14:58:22.837Z,56.20
2019-02-07T14:59:58.310Z,57.20
2019-02-07T15:01:33.829Z,56.20
2019-02-07T15:03:16.954Z,56.60
2019-02-07T15:04:52.695Z,56.80
2019-02-07T15:06:28.191Z,56.90
2019-02-07T15:08:05.182Z,56.80
2019-02-07T15:09:40.737Z,56.60
2019-02-07T15:11:16.215Z,56.70
2019-02-07T15:12:51.980Z,56.90
2019-02-07T15:14:27.566Z,57.20
2019-02-07T15:16:03.122Z,57.00
2019-02-07T15:17:38.605Z,57.20
2019-02-07T15:19:14.086Z,57.20
2019-02-07T15:20:49.601Z,57.00
2019-02-07T15:22:25.161Z,57.20
2019-02-07T15:24:00.805Z,57.60
2019-02-07T15:25:36.293Z,57.60
2019-02-07T15:27:11.858Z,57.40
2019-02-07T15:28:47.350Z,57.70
2019-02-07T15:30:23.106Z,57.40
2019-02-07T15:31:58.641Z,57.70
2019-02-07T15:33:34.506Z,58.30
2019-02-07T15:35:23.523Z,58.20
2019-02-07T15:36:59.111Z,58.30
2019-02-07T15:38:34.602Z,59.00
2019-02-07T15:40:14.763Z,58.90
2019-02-07T15:41:50.256Z,59.20
2019-02-07T15:43:25.764Z,59.40
2019-02-07T15:45:01.251Z,59.80
2019-02-07T15:46:36.740Z,59.80
2019-02-07T15:48:13.437Z,59.80
2019-02-07T15:49:48.915Z,60.50
2019-02-07T15:51:24.406Z,60.30
2019-02-07T15:53:03.004Z,60.00
2019-02-07T15:54:38.928Z,59.90
2019-02-07T15:56:14.415Z,60.20
2019-02-07T15:57:49.912Z,60.70
2019-02-07T15:59:33.177Z,60.50
2019-02-07T16:01:25.382Z,61.20
2019-02-07T16:03:03.267Z,61.70
2019-02-07T16:04:39.215Z,61.70
2019-02-07T16:06:14.706Z,62.20
2019-02-07T16:07:50.194Z,61.90
2019-02-07T16:09:25.702Z,62.40
2019-02-07T16:11:01.212Z,62.20
2019-02-07T16:12:36.716Z,62.10
2019-02-07T16:14:12.266Z,62.30
2019-02-07T16:15:47.748Z,62.40
2019-02-07T16:17:23.249Z,62.30
2019-02-07T16:18:58.738Z,63.10
2019-02-07T16:20:34.237Z,63.00
2019-02-07T16:22:09.807Z,63.20
2019-02-07T16:23:45.314Z,63.70
2019-02-07T16:25:21.105Z,64.20
2019-02-07T16:26:56.693Z,64.50
2019-02-07T16:28:32.187Z,65.30
2019-02-07T16:30:23.240Z,65.60
2019-02-07T16:31:58.751Z,65.80
2019-02-07T16:33:34.248Z,65.90
2019-02-07T16:35:09.920Z,66.00
2019-02-07T16:36:45.868Z,66.10
2019-02-07T16:38:21.433Z,66.30
2019-02-07T16:39:58.437Z,66.50
2019-02-07T16:41:33.982Z,66.40
2019-02-07T16:43:09.516Z,66.40
2019-02-07T16:44:45.017Z,66.90
2019-02-07T16:46:20.500Z,67.50
2019-02-07T16:47:56.054Z,68.30
2019-02-07T16:49:31.539Z,68.30
2019-02-07T16:51:07.028Z,68.00
2019-02-07T16:52:44.035Z,68.40
2019-02-07T16:54:19.722Z,68.90
2019-02-07T16:55:55.228Z,69.10
2019-02-07T16:57:30.979Z,69.60
2019-02-07T16:59:06.481Z,70.10
2019-02-07T17:00:41.961Z,70.30
2019-02-07T17:02:17.455Z,70.30
2019-02-07T17:03:52.966Z,70.60
2019-02-07T17:05:29.020Z,70.90
2019-02-07T17:07:04.589Z,70.80
2019-02-07T17:08:40.085Z,71.10
2019-02-07T17:10:23.052Z,71.60
2019-02-07T17:12:00.899Z,71.40
2019-02-07T17:13:35.819Z,71.90
2019-02-07T17:15:17.891Z,72.10
2019-02-07T17:16:53.387Z,72.10
2019-02-07T17:18:28.895Z,72.50
2019-02-07T17:20:14.756Z,72.20
2019-02-07T17:21:48.447Z,72.60
2019-02-07T17:23:25.448Z,72.80
2019-02-07T17:25:01.349Z,72.80
2019-02-07T17:26:37.936Z,73.00
2019-02-07T17:28:13.501Z,73.20
2019-02-07T17:29:48.985Z,73.80
2019-02-07T17:31:24.505Z,73.50
2019-02-07T17:33:00.056Z,74.30
2019-02-07T17:34:35.615Z,73.80
2019-02-07T17:36:11.104Z,74.00
2019-02-07T17:37:46.727Z,74.30
2019-02-07T17:39:22.255Z,74.10
2019-02-07T17:40:57.750Z,74.00
2019-02-07T17:42:33.242Z,74.20
2019-02-07T17:44:08.724Z,74.30
2019-02-07T17:45:44.592Z,74.60
2019-02-07T17:47:21.702Z,74.30
2019-02-07T17:48:57.192Z,75.40
2019-02-07T17:50:38.920Z,74.80
2019-02-07T17:52:14.413Z,74.70
2019-02-07T17:53:50.299Z,75.00
2019-02-07T17:55:26.740Z,75.10
2019-02-07T17:57:02.253Z,75.20
2019-02-07T17:58:39.435Z,75.70
2019-02-07T18:00:44.997Z,75.70
2019-02-07T18:02:20.489Z,76.20
2019-02-07T18:03:55.979Z,76.00
2019-02-07T18:05:31.464Z,76.40
2019-02-07T18:07:07.733Z,76.50
2019-02-07T18:08:43.498Z,76.80
2019-02-07T18:10:19.549Z,77.10
2019-02-07T18:11:55.048Z,77.20
2019-02-07T18:13:30.553Z,77.60
2019-02-07T18:15:08.675Z,77.50
2019-02-07T18:16:44.173Z,77.60
2019-02-07T18:18:19.728Z,78.00
2019-02-07T18:19:55.265Z,78.10
2019-02-07T18:21:34.191Z,78.20
2019-02-07T18:23:08.160Z,78.60
2019-02-07T18:24:43.653Z,79.00
2019-02-07T18:26:19.180Z,79.40
2019-02-07T18:27:54.735Z,79.60
2019-02-07T18:29:30.499Z,79.70
2019-02-07T18:31:06.063Z,80.00
2019-02-07T18:32:43.111Z,80.20
2019-02-07T18:34:18.606Z,81.10
2019-02-07T18:35:54.097Z,80.50
2019-02-07T18:37:29.676Z,80.60
2019-02-07T18:39:08.358Z,80.50
2019-02-07T18:40:43.850Z,80.50
2019-02-07T18:42:19.339Z,80.70
2019-02-07T18:43:54.821Z,80.60
2019-02-07T18:45:30.325Z,80.70
2019-02-07T18:47:05.827Z,81.20
2019-02-07T18:48:41.347Z,81.20
2019-02-07T18:50:32.468Z,81.40
2019-02-07T18:52:07.973Z,81.80
2019-02-07T18:53:43.839Z,82.10
2019-02-07T18:55:19.334Z,82.00
2019-02-07T18:56:56.353Z,82.10
2019-02-07T18:58:31.842Z,82.10
2019-02-07T19:00:20.643Z,82.30
2019-02-07T19:01:56.294Z,82.30
2019-02-07T19:03:33.274Z,82.30
2019-02-07T19:05:14.147Z,82.60
2019-02-07T19:06:49.637Z,82.80
2019-02-07T19:08:25.145Z,83.20
2019-02-07T19:10:00.681Z,83.10
2019-02-07T19:11:36.174Z,83.10
2019-02-07T19:13:11.844Z,83.30
2019-02-07T19:14:48.962Z,83.30
2019-02-07T19:16:26.350Z,83.20
2019-02-07T19:18:01.842Z,83.70
2019-02-07T19:19:38.856Z,83.90
2019-02-07T19:21:14.351Z,84.00
2019-02-07T19:22:49.910Z,84.80
2019-02-07T19:24:25.399Z,84.40
2019-02-07T19:26:00.888Z,84.50
2019-02-07T19:27:36.383Z,84.70
2019-02-07T19:29:11.904Z,84.60
2019-02-07T19:30:47.398Z,84.40
2019-02-07T19:32:24.391Z,84.50
2019-02-07T19:34:00.138Z,84.50
2019-02-07T19:35:35.772Z,85.10
2019-02-07T19:37:11.343Z,84.70
2019-02-07T19:38:46.833Z,84.60
2019-02-07T19:40:23.078Z,84.70
2019-02-07T19:41:58.656Z,84.60
2019-02-07T19:43:34.261Z,84.90
2019-02-07T19:45:14.583Z,85.20
2019-02-07T19:46:50.207Z,85.10
2019-02-07T19:48:25.801Z,85.20
2019-02-07T19:50:01.328Z,85.50
2019-02-07T19:51:36.943Z,85.60
2019-02-07T19:53:12.621Z,85.40
2019-02-07T19:54:48.234Z,85.40
2019-02-07T19:56:23.815Z,85.50
2019-02-07T19:57:59.462Z,85.50
2019-02-07T19:59:34.956Z,85.50
2019-02-07T20:01:12.250Z,85.50
2019-02-07T20:02:48.206Z,85.50
2019-02-07T20:04:24.083Z,85.40
2019-02-07T20:05:59.590Z,85.40
2019-02-07T20:07:35.087Z,85.30
2019-02-07T20:09:12.128Z,85.60
2019-02-07T20:10:47.589Z,85.60
2019-02-07T20:12:23.549Z,85.50
2019-02-07T20:13:59.365Z,85.70
2019-02-07T20:15:38.987Z,85.60
2019-02-07T20:17:14.615Z,85.70
2019-02-07T20:18:50.138Z,85.50
2019-02-07T20:20:25.679Z,85.50
2019-02-07T20:22:01.262Z,85.70
2019-02-07T20:23:39.648Z,85.80
2019-02-07T20:25:17.585Z,86.40
2019-02-07T20:26:53.312Z,86.10
2019-02-07T20:28:28.871Z,86.10
2019-02-07T20:30:08.004Z,86.70
2019-02-07T20:31:43.827Z,86.20
2019-02-07T20:33:19.330Z,86.30
2019-02-07T20:34:56.355Z,86.40
2019-02-07T20:36:31.853Z,86.40
2019-02-07T20:38:08.729Z,86.50
2019-02-07T20:39:45.884Z,86.60
2019-02-07T20:41:21.382Z,86.50
2019-02-07T20:42:59.238Z,86.70
2019-02-07T20:44:34.719Z,86.70
2019-02-07T20:46:10.458Z,86.80
2019-02-07T20:47:45.955Z,86.80
2019-02-07T20:49:21.451Z,86.90
2019-02-07T20:50:57.726Z,86.90
2019-02-07T20:52:33.834Z,87.10
2019-02-07T20:54:09.451Z,87.10
2019-02-07T20:55:45.205Z,87.10
2019-02-07T20:57:20.838Z,87.50
2019-02-07T20:58:59.211Z,87.50
2019-02-07T21:00:39.885Z,87.50
2019-02-07T21:02:16.882Z,87.50
2019-02-07T21:03:52.394Z,87.60
2019-02-07T21:05:29.815Z,87.70
2019-02-07T21:07:05.517Z,87.70
2019-02-07T21:08:41.216Z,88.10
2019-02-07T21:10:27.371Z,88.00
2019-02-07T21:12:06.047Z,88.10
2019-02-07T21:13:41.619Z,88.20
2019-02-07T21:15:20.093Z,88.10
2019-02-07T21:16:55.761Z,88.40
2019-02-07T21:18:31.543Z,88.40
2019-02-07T21:20:12.027Z,88.40
2019-02-07T21:21:47.687Z,88.20
2019-02-07T21:23:23.350Z,88.20
2019-02-07T21:24:59.244Z,88.60
2019-02-07T21:26:36.489Z,88.40
2019-02-07T21:28:12.105Z,88.50
2019-02-07T21:29:47.810Z,88.60
2019-02-07T21:31:23.473Z,88.60
2019-02-07T21:32:59.134Z,88.70
2019-02-07T21:34:34.783Z,88.80
2019-02-07T21:36:10.383Z,88.80
2019-02-07T21:37:45.952Z,88.80
2019-02-07T21:39:21.488Z,88.90
2019-02-07T21:40:57.119Z,89.10
2019-02-07T21:42:32.789Z,89.00
2019-02-07T21:44:08.542Z,89.20
2019-02-07T21:45:44.191Z,89.10
2019-02-07T21:47:19.848Z,89.20